• Join FlightAware (Why Join?)
  • Login
  • US Flag 
01:16AM EST


 

Airport Tracker/Info


-or-


 

Live Flight TrackerFlight Track Log ✈ UAL1197 ✈ 13-Jun-2013 ✈ KIAH - KTPA

Flight Track Log - Related Links

Times and Time Zones

All times are in EDT time to prevent confusion due to time zone crossing. See the UAL1197 flight status page for this flight to view local times or setup timezone preferences in your user account.

Time Position Orientation Groundspeed Altitude Reporting Facility
EDT Latitude Longitude Course Direction KTS MPH feet Rate Location/Type
08:18AM 29.9559 -95.3373 179° South 174 200 800  Level FlightAware ADS-B
08:18AM 29.9540 -95.3349 132° Southeast 175 201 900 1,800 Climbing FlightAware ADS-B
08:18AM 29.9494 -95.3279 127° Southeast 177 204 1,200 1,500 Climbing FlightAware ADS-B
08:18AM 29.9390 -95.3091 123° Southeast 214 246 1,700 1,560 Climbing FlightAware ADS-B
08:18AM 29.9320 -95.2960 122° Southeast 228 262 2,100 2,760 Climbing FlightAware ADS-B
08:19AM 29.9225 -95.2785 122° Southeast 226 260 3,100 3,060 Climbing FlightAware ADS-B
08:19AM 29.9133 -95.2619 123° Southeast 239 275 3,800 2,040 Climbing FlightAware ADS-B
08:19AM 29.9031 -95.2440 123° Southeast 265 305 4,200 2,280 Climbing FlightAware ADS-B
08:20AM 29.8923 -95.2253 124° Southeast 271 312 5,000 3,180 Climbing FlightAware ADS-B
08:20AM 29.8817 -95.2071 124° Southeast 276 318 5,800 3,060 Climbing FlightAware ADS-B
08:20AM 29.8703 -95.1880 125° Southeast 280 322 6,600 3,060 Climbing FlightAware ADS-B
08:20AM 29.8588 -95.1693 125° Southeast 285 328 7,400 3,360 Climbing FlightAware ADS-B
08:21AM 29.8472 -95.1507 126° Southeast 286 329 8,300 3,360 Climbing FlightAware ADS-B
08:21AM 29.8353 -95.1316 126° Southeast 289 333 9,100 3,060 Climbing FlightAware ADS-B
08:21AM 29.8262 -95.1169 126° Southeast 291 335 9,700 3,000 Climbing FlightAware ADS-B
08:21AM 29.8174 -95.1013 120° Southeast 294 338 10,300 2,460 Climbing FlightAware ADS-B
08:21AM 29.8145 -95.0944 116° Southeast 298 343 10,400 1,320 Climbing FlightAware ADS-B
08:21AM 29.8090 -95.0743 106° East 316 364 10,700 2,280 Climbing FlightAware ADS-B
08:23AM 29.7898 -94.9078 97° East 356 410 14,400 2,520 Climbing FlightAware ADS-B
08:24AM 29.7761 -94.7917 98° East 362 417 17,200 2,520 Climbing FlightAware ADS-B
08:25AM 29.7616 -94.6724 98° East 376 433 19,600 2,220 Climbing FlightAware ADS-B
08:27AM 29.7389 -94.4881 98° East 396 456 22,900 1,680 Climbing FlightAware ADS-B
08:27AM 29.7309 -94.4243 98° East 401 461 23,100 960 Climbing FlightAware ADS-B
08:28AM 29.7225 -94.3562 98° East 412 474 23,900 1,380 Climbing FlightAware ADS-B
08:28AM 29.7146 -94.2882 98° East 423 487 24,600 1,500 Climbing FlightAware ADS-B
08:29AM 29.7072 -94.2198 97° East 428 493 25,500 1,860 Climbing FlightAware ADS-B
08:30AM 29.6916 -94.0801 97° East 433 498 27,500 1,680 Climbing FlightAware ADS-B
08:30AM 29.6865 -94.0019 92° East 441 507 28,200 1,260 Climbing FlightAware ADS-B
08:32AM 29.6836 -93.6816 91° East 469 540 31,000 1,200 Climbing FlightAware ADS-B
08:33AM 29.6825 -93.6075 91° East 466 536 31,700 1,200 Climbing Houston Center
08:34AM 29.6797 -93.4578 91° East 471 542 33,100 1,260 Climbing Houston Center
08:35AM 29.6778 -93.3092 91° East 469 540 34,300 1,320 Climbing Houston Center
08:36AM 29.6756 -93.1308 91° East 468 539 35,900 1,200 Climbing Houston Center
08:37AM 29.6736 -92.9836 91° East 466 536 36,900 480 Climbing Houston Center
08:38AM 29.6725 -92.8417 90° East 453 521 36,900  Level Houston Center
08:44AM 29.5783 -91.9634 90° East 456 525 37,000  Climbing FlightAware ADS-B
08:45AM 29.5514 -91.8349 104° East 456 525 37,000  Level FlightAware ADS-B
08:46AM 29.5342 -91.7530 104° East 456 525 37,000  Level FlightAware ADS-B
08:46AM 29.5203 -91.6844 104° East 452 520 37,000  Level Houston Center
08:52AM 29.3430 -90.8610 104° East 461 531 37,000  Level FlightAware
08:53AM 29.3230 -90.7680 104° East 459 528 37,000  Level FlightAware
08:54AM 29.2910 -90.6260 104° East 454 522 37,000  Level FlightAware
08:54AM 29.2740 -90.5460 104° East 454 522 37,000  Level FlightAware
08:56AM 29.2290 -90.3420 104° East 454 522 37,000  Level FlightAware
08:57AM 29.2120 -90.2650 104° East 454 522 37,000  Level FlightAware
08:57AM 29.1800 -90.1250 105° East 446 513 37,000  Level FlightAware
08:58AM 29.1610 -90.0350 104° East 446 513 37,000  Level FlightAware
08:59AM 29.1460 -89.9670 104° East 446 513 37,000  Level FlightAware
09:00AM 29.1260 -89.8780 104° East 446 513 37,000  Level FlightAware
09:00AM 29.1070 -89.7880 104° East 446 513 37,000  Level FlightAware
09:01AM 29.0720 -89.5960 102° East 448 516 37,000  Level FlightAware
09:02AM 29.0570 -89.5240 103° East 448 516 37,000  Level FlightAware
09:03AM 29.0380 -89.4310 103° East 448 516 37,000  Level FlightAware
09:03AM 29.0140 -89.3180 104° East 454 522 37,000  Level FlightAware
09:04AM 28.9900 -89.2050 104° East 455 524 37,000  Level FlightAware
09:05AM 28.9630 -89.0780 104° East 455 524 37,000  Level FlightAware
09:06AM 28.9430 -88.9810 103° East 455 524 37,000  Level FlightAware
09:07AM 28.9040 -88.7950 103° East 452 520 37,000  Level FlightAware
09:08AM 28.8910 -88.7270 102° East 452 520 37,000  Level FlightAware
09:08AM 28.8710 -88.6310 103° East 452 520 37,000  Level FlightAware
09:09AM 28.8550 -88.5530 103° East 452 520 37,000  Level FlightAware
09:10AM 28.8230 -88.3930 103° East 452 520 37,000  Level FlightAware
09:11AM 28.8030 -88.2920 103° East 452 520 37,000  Level FlightAware
09:12AM 28.7880 -88.2190 103° East 452 520 37,000  Level FlightAware
09:13AM 28.7730 -88.1460 103° East 452 520 37,000  Level FlightAware
09:13AM 28.7530 -88.0450 103° East 452 520 37,000  Level FlightAware
09:14AM 28.7380 -87.9740 104° East 452 520 37,000  Level FlightAware
09:15AM 28.7070 -87.8200 103° East 452 520 37,000  Level FlightAware
09:16AM 28.6930 -87.7530 103° East 452 520 37,000  Level FlightAware
09:16AM 28.5553 -87.5317 103° East 457 526 37,000  Level Houston Center
09:17AM 28.5164 -87.3967 108° East 454 522 37,000 -60 Level Houston Center
09:18AM 28.4692 -87.2322 108° East 457 526 36,900  Descending Houston Center
09:19AM 28.4297 -87.0975 108° East 453 521 37,000 60 Climbing Houston Center
09:20AM 28.4242 -87.0747 105° East 455 524 37,000  Level Jacksonville Center
09:21AM 28.3844 -86.9411 109° East 448 516 37,000 -360 Level Jacksonville Center
09:22AM 28.3469 -86.8097 108° East 448 516 36,300 -900 Descending Jacksonville Center
09:23AM 28.3069 -86.6786 109° East 441 507 35,300 -960 Descending Jacksonville Center
09:24AM 28.2711 -86.5500 108° East 436 502 34,400 -960 Descending Jacksonville Center
09:25AM 28.2331 -86.4192 108° East 431 496 33,400 -780 Descending Jacksonville Center
09:26AM 28.1928 -86.2883 109° East 431 496 32,900 -240 Descending Jacksonville Center
09:27AM 28.1544 -86.1575 108° East 440 506 33,000  Climbing Jacksonville Center
09:28AM 28.1158 -86.0292 109° East 434 499 33,000  Level Jacksonville Center
09:29AM 28.0772 -85.8964 108° East 434 499 33,000  Level Jacksonville Center
09:35AM 27.8780 -85.1290 108° East 422 486 33,000  Level FlightAware
09:36AM 27.8760 -85.0150 91° East 422 486 33,000  Level FlightAware
09:36AM 27.8860 -84.8890 85° East 421 484 33,000 -420 Level FlightAware
09:37AM 27.8870 -84.8100 89° East 434 499 32,500 -480 Descending FlightAware
09:38AM 27.8900 -84.7110 88° East 437 503 32,300 -180 Descending FlightAware
09:38AM 27.8920 -84.6450 88° East 437 503 32,300 -1,440 Level FlightAware
09:39AM 27.8940 -84.5040 89° East 450 518 30,400 -1,260 Descending FlightAware
09:40AM 27.8970 -84.3680 89° East 451 519 30,000 -240 Descending FlightAware
09:41AM 27.9010 -84.2620 88° East 451 519 30,000  Level FlightAware
09:42AM 27.9040 -84.1700 88° East 451 519 30,000 -3,420 Level FlightAware
09:43AM 27.9030 -84.0200 90° East 419 482 24,900 -4,680 Descending FlightAware
09:43AM 27.9040 -83.9220 89° East 409 471 23,200 -2,220 Descending FlightAware
09:44AM 27.9050 -83.8490 89° East 401 461 22,000 -1,200 Descending FlightAware
09:44AM 27.9070 -83.7990 87° East 401 461 22,000  Level FlightAware
09:46AM 27.9110 -83.6760 88° East 401 461 22,000  Level FlightAware
09:46AM 27.9130 -83.5880 89° East 401 461 22,000  Level FlightAware
09:47AM 27.9160 -83.5170 87° East 401 461 22,000  Level FlightAware
09:48AM 27.9180 -83.4440 88° East 401 461 22,000 -5,580 Level FlightAware
09:49AM 27.9130 -83.2790 92° East 348 400 11,800 -5,820 Descending FlightAware
09:49AM 27.9140 -83.2220 89° East 348 400 11,800  Level FlightAware
09:50AM 27.9150 -83.1430 89° East 348 400 11,800 -2,040 Level FlightAware
09:50AM 27.9340 -83.1190 48° Northeast 302 348 9,900 -3,360 Descending FlightAware
09:51AM 27.9490 -83.0860 63° Northeast 302 348 9,900 -600 Level FlightAware
09:52AM 27.9860 -83.0040 63° Northeast 281 323 9,000 -1,680 Descending FlightAware
09:52AM 28.0060 -82.9580 64° Northeast 279 321 7,400 -2,820 Descending FlightAware
09:53AM 28.0130 -82.9420 64° Northeast 277 319 7,200 -1,320 Descending FlightAware
09:53AM 28.0300 -82.9040 63° Northeast 273 314 6,500 -1,320 Descending FlightAware
09:53AM 28.0370 -82.8880 64° Northeast 273 314 6,300 -960 Descending FlightAware
09:54AM 28.0520 -82.8540 63° Northeast 271 312 5,900 -600 Descending FlightAware
09:54AM 28.0560 -82.8300 79° East 270 311 5,900  Level FlightAware
09:54AM 28.0510 -82.7920 98° East 268 308 5,900  Level FlightAware
09:55AM 28.0420 -82.7580 107° East 269 310 5,900  Level FlightAware
09:55AM 28.0310 -82.7160 107° East 269 310 5,900 -480 Level FlightAware
09:56AM 28.0230 -82.6840 106° East 270 311 5,500 -1,140 Descending FlightAware
09:56AM 28.0090 -82.6460 113° Southeast 269 310 4,900 -960 Descending FlightAware
09:57AM 27.9950 -82.6300 135° Southeast 258 297 4,800  Descending FlightAware
09:57AM 27.9820 -82.6220 151° Southeast 253 291 4,900 -240 Climbing FlightAware
09:57AM 27.9650 -82.6170 165° South 247 284 4,700 -1,140 Descending FlightAware
09:58AM 27.9150 -82.6190 182° South 249 287 3,800 -1,260 Descending FlightAware
09:58AM 27.8920 -82.6200 182° South 248 285 3,400 -1,200 Descending FlightAware
09:58AM 27.8690 -82.6210 182° South 247 284 3,000 -660 Descending FlightAware
09:59AM 27.8370 -82.6220 182° South 247 284 2,900 -480 Descending FlightAware
09:59AM 27.8040 -82.6190 175° South 239 275 2,600 -360 Descending FlightAware
10:00AM 27.7600 -82.6110 171° South 236 272 2,500 -120 Descending FlightAware
10:01AM 27.7380 -82.5840 133° Southeast 239 275 2,500  Level FlightAware
10:01AM 27.7430 -82.5550 79° East 242 278 2,500  Level FlightAware
10:01AM 27.7650 -82.5380 34° Northeast 213 245 2,500 -180 Level FlightAware
10:02AM 27.7770 -82.5350 12° North 203 234 2,400  Descending FlightAware
10:02AM 27.8070 -82.5340 North 197 227 2,500 60 Climbing FlightAware
10:03AM 27.8310 -82.5330 North 195 224 2,500 -240 Level FlightAware
10:03AM 27.8570 -82.5330 360° North 196 226 2,300 -540 Descending FlightAware
10:03AM 27.8710 -82.5320 North 194 223 2,100 -1,080 Descending FlightAware
10:04AM 27.8950 -82.5320 360° North 178 205 1,500 -1,200 Descending FlightAware
10:04AM 27.9130 -82.5310 North 163 188 1,100 -1,020 Descending FlightAware
10:05AM 27.9340 -82.5300 North 152 175 600 -900 Descending FlightAware
10:05AM 27.9430 -82.5300 360° North 152 175 400 -300 Descending FlightAware
10:05AM 27.9580 -82.5290 North 152 175 400  Level FlightAware